AirNav   Air Wisconsin Up To $57,000 Bonus
 
 962 users online  

1MI2 Guardian Industries Heliport
Auburn Hills, Michigan, USA

GOING TO AUBURN HILLS?


FAA INFORMATION EFFECTIVE 05 DECEMBER 2019

Location

FAA Identifier: 1MI2
Lat/Long: 42-41-59.1150N 083-14-50.7720W
42-41.985250N 083-14.846200W
42.6997542,-83.2474367
(estimated)
Elevation: 1021 ft. / 311 m (estimated)
Variation: 06W (1990)
From city: 4 miles NW of AUBURN HILLS, MI
Time zone: UTC -5 (UTC -4 during Daylight Saving Time)
Zip code: 48326

Heliport Operations

Heliport use: Private use. Permission required prior to landing
Activation date: 08/1994
Control tower: no
ARTCC: CLEVELAND CENTER
FSS: LANSING FLIGHT SERVICE STATION
Attendance: UNATNDD
Segmented circle: no

Heliport Communications

WX ASOS at PTK (8 nm W): 125.025 (248-886-8551)
WX AWOS-3 at VLL (10 nm S): 119.475 (248-288-4649)

Nearby radio navigation aids

VOR radial/distance  VOR name  Freq  Var
SVMr044/23.2SALEM VORTAC114.3003W
FNTr132/27.2FLINT VORTAC116.9006W
DXOr016/29.7DETROIT VOR/DME113.4006W
YQGr332/32.7WINDSOR VOR/DME113.8006W

 
NDB name  Hdg/Dist  Freq  Var  ID
GROSSE ILE000/36.241907WRYS .-. -.-- ...

Heliport Services

Runway Information

Helipad H1

Dimensions: 64 x 64 ft. / 20 x 20 m
Surface: concrete
Traffic pattern: leftleft

Heliport Ownership and Management from official FAA records

Ownership: Privately-owned
Owner: GUARDIAN INDUSTRIES CORP
29840 NORTHLINE RD.
ROMULS, MI 48174
Phone 734-941-5822

Additional Remarks

A52-H1 300 FT TWR 300 FT N.
FOR CD CTC DETROIT APCH AT 800-499-8181.

Instrument Procedures

There are no published instrument procedures at 1MI2.

Some nearby airports with instrument procedures:

KPTK - Oakland County International Airport (8 nm W)
KVLL - Oakland/Troy Airport (10 nm S)
D98 - Romeo State Airport (13 nm NE)
57D - Ray Community Airport (16 nm E)
KMTC - Selfridge Air National Guard Base (19 nm E)
 
Loc | Ops | Rwys | IFR | FBO | Links
Com | Nav | Svcs | Stats | Notes
Area around 1MI2 (Guardian Industries Heliport)
 
Road maps at: MapQuest Bing Google
 
Aerial photo
No photo
 
Sectional chart

 
Airport distance calculator
Flying to Guardian Industries Heliport? Find the distance to fly.

From to 1MI2

Sunrise and sunset
Times for 12-Dec-2019
 Local
(UTC-5)
 Zulu
(UTC)
Morning civil twilight07:2312:23
Sunrise07:5512:55
Sunset16:5821:58
Evening civil twilight17:3022:30

Current date and time
Zulu (UTC)  12-Dec-2019 23:49:12
Local (UTC-5)  12-Dec-2019 18:49:12
 
METAR
KPTK 
8nm W 
122253Z 17009G18KT 10SM BKN150 BKN200 M01/M06 A3022 RMK AO2 SLP249 T10061056
KVLL 
10nm S 
122335Z AUTO 17006KT 10SM CLR 01/M03 A3027 RMK AO2 T00081030
KMTC 
20nm E 
122256Z 16011KT 10SM BKN200 01/M02 A3026 RMK AO2A SLP261 T00061016
TAF
KPTK 
8nm W 
121723Z 1218/1318 17013G19KT P6SM FEW035 BKN210 FM130000 18008KT P6SM SCT250 WS017/20045KT FM131100 19009KT P6SM OVC120
KMTC 
20nm E 
121700Z 1217/1323 18015G20KT 9999 SCT080 BKN150 QNH3027INS BECMG 1220/1221 18015KT 9999 FEW080 SCT150 QNH3016INS BECMG 1302/1303 18012KT 9999 SKC QNH3002INS BECMG 1315/1316 18006KT 9999 SCT070 BKN080 QNH2989INS TX02/1317Z TNM03/1217Z
NOTAMs
Click for the latest NOTAMs
NOTAMs are issued by the DoD/FAA and will open in a separate window not controlled by AirNav.

 

 
 

Would you like to see your business listed on this page?

 If your business provides an interesting product or service to pilots, flight crews, aircraft, or users of the Guardian Industries Heliport, you should consider listing it here.  To start the listing process, click on the button below
 
Add a business
 

Other Pages about Guardian Industries Heliport

Update a link
 
Copyright © AirNav, LLC. All rights reserved. Privacy Policy  Contact